Time;durP1;ratioP1;P1;durP2;ratioP2;P2;SDS_P1;SDS_P2;PMS_P1;PMS_P2;Temp;Humidity;BMP_temperature;BMP_pressure;BME280_temperature;BME280_humidity;BME280_pressure;Samples;Min_cycle;Max_cycle;Signal;HPM_P1;HPM_P2
2021/12/20 00:00:27;;;;;;;2.00;1.25;;;10.40;78.70;;;;;;5038157;28;20025;-88
2021/12/20 00:02:59;;;;;;;1.63;1.30;;;10.40;79.30;;;;;;5053910;28;20469;-87
2021/12/20 00:05:28;;;;;;;1.90;1.20;;;10.40;78.70;;;;;;5037262;28;20028;-88
2021/12/20 00:07:54;;;;;;;1.33;1.20;;;10.30;78.60;;;;;;5053832;28;20485;-87
2021/12/20 00:10:22;;;;;;;1.88;1.50;;;10.40;78.70;;;;;;5053710;28;20025;-87
2021/12/20 00:12:49;;;;;;;1.40;1.17;;;10.30;78.70;;;;;;5053148;28;20064;-87
2021/12/20 00:15:16;;;;;;;1.60;1.20;;;10.30;78.60;;;;;;5037404;28;20119;-88
2021/12/20 00:17:44;;;;;;;1.58;1.25;;;10.40;78.70;;;;;;5037287;28;20040;-88
2021/12/20 00:20:10;;;;;;;1.30;1.10;;;10.30;78.60;;;;;;5036939;28;20025;-89
2021/12/20 00:22:36;;;;;;;1.38;1.25;;;10.30;78.60;;;;;;5054039;28;20082;-87
2021/12/20 00:25:04;;;;;;;1.92;1.48;;;10.40;78.70;;;;;;5036888;28;20402;-88
2021/12/20 00:27:35;;;;;;;2.20;1.35;;;10.30;78.60;;;;;;5054544;28;20032;-87
2021/12/20 00:30:01;;;;;;;2.50;1.30;;;10.30;78.60;;;;;;5053233;28;20048;-87
2021/12/20 00:32:27;;;;;;;2.33;1.27;;;10.30;78.60;;;;;;5037116;28;20037;-87
2021/12/20 00:34:55;;;;;;;2.05;1.27;;;10.30;78.60;;;;;;5052756;28;20033;-87
2021/12/20 00:40:21;;;;;;;1.93;1.30;;;10.30;78.60;;;;;;5054136;28;20044;-88
2021/12/20 00:42:58;;;;;;;2.47;1.50;;;10.30;78.60;;;;;;5036649;28;20029;-88
2021/12/20 00:45:26;;;;;;;2.60;1.40;;;10.30;78.60;;;;;;5053225;28;20112;-88
2021/12/20 00:47:54;;;;;;;2.85;1.40;;;10.30;78.60;;;;;;5053293;28;20072;-88
2021/12/20 00:50:22;;;;;;;2.53;1.25;;;10.30;78.70;;;;;;5053152;28;20027;-88
2021/12/20 00:52:49;;;;;;;2.55;1.40;;;10.30;78.70;;;;;;5036634;28;20029;-88
2021/12/20 00:55:18;;;;;;;2.17;1.27;;;10.20;78.60;;;;;;5036707;28;20028;-88
2021/12/20 00:57:48;;;;;;;2.22;1.30;;;10.30;78.70;;;;;;5053444;28;20039;-88
2021/12/20 01:00:18;;;;;;;3.33;1.50;;;10.30;78.70;;;;;;5054183;28;20029;-88
2021/12/20 01:02:47;;;;;;;3.25;1.65;;;10.30;78.70;;;;;;5041146;28;20616;-87
2021/12/20 01:05:13;;;;;;;3.00;1.30;;;10.20;78.60;;;;;;5044068;28;20112;-87
2021/12/20 01:07:44;;;;;;;1.75;1.15;;;10.30;78.70;;;;;;5059545;28;20051;-88
2021/12/20 01:10:10;;;;;;;2.35;1.23;;;10.20;78.60;;;;;;5041191;28;20056;-88
2021/12/20 01:12:47;;;;;;;2.03;1.17;;;10.20;78.60;;;;;;5040099;28;20053;-87
2021/12/20 01:15:23;;;;;;;4.90;1.73;;;10.20;78.60;;;;;;5057855;28;20021;-87
2021/12/20 01:17:49;;;;;;;1.20;1.10;;;10.20;78.60;;;;;;5040642;28;20033;-87
2021/12/20 01:20:16;;;;;;;2.50;1.33;;;10.20;78.60;;;;;;5056629;28;20025;-88
2021/12/20 01:22:47;;;;;;;3.05;1.27;;;10.20;78.60;;;;;;5057038;28;20457;-88
2021/12/20 01:25:14;;;;;;;1.80;1.10;;;10.20;78.70;;;;;;5056757;28;20029;-88
2021/12/20 01:27:43;;;;;;;2.72;1.15;;;10.20;78.60;;;;;;5039696;28;20029;-87
2021/12/20 01:30:12;;;;;;;2.13;1.23;;;10.20;78.70;;;;;;5039498;28;20485;-87
2021/12/20 01:32:38;;;;;;;2.78;1.27;;;10.20;78.60;;;;;;5040155;28;20607;-87
2021/12/20 01:35:07;;;;;;;3.05;1.40;;;10.20;78.70;;;;;;5023678;28;20040;-88
2021/12/20 01:37:33;;;;;;;1.20;1.10;;;10.20;78.60;;;;;;5040046;28;20032;-87
2021/12/20 01:39:59;;;;;;;4.22;1.30;;;10.20;78.60;;;;;;5039305;28;20035;-87
2021/12/20 01:42:29;;;;;;;2.13;1.20;;;10.20;78.60;;;;;;5056065;28;20032;-87
2021/12/20 01:44:57;;;;;;;2.97;1.20;;;10.20;78.70;;;;;;5039908;28;20448;-88
2021/12/20 01:47:34;;;;;;;3.20;1.23;;;10.20;78.60;;;;;;5040375;28;20021;-87
2021/12/20 01:50:17;;;;;;;4.10;1.60;;;10.20;78.60;;;;;;5040021;28;20037;-87
2021/12/20 01:52:44;;;;;;;2.40;1.20;;;10.20;78.60;;;;;;5039598;28;20381;-87
2021/12/20 01:55:13;;;;;;;2.78;1.50;;;10.10;78.60;;;;;;5039346;28;20048;-88
2021/12/20 01:57:39;;;;;;;1.77;1.20;;;10.10;78.60;;;;;;5056183;28;20119;-87
2021/12/20 02:00:18;;;;;;;2.63;1.15;;;10.10;78.60;;;;;;5056340;28;20116;-87
2021/12/20 02:02:58;;;;;;;3.70;1.55;;;10.10;78.70;;;;;;5057321;28;20033;-87
2021/12/20 02:05:50;;;;;;;2.15;1.30;;;10.10;78.60;;;;;;5056361;28;20082;-88
2021/12/20 02:08:21;;;;;;;4.78;1.70;;;10.10;78.60;;;;;;5056500;28;20033;-87
2021/12/20 02:10:49;;;;;;;2.80;1.30;;;10.10;78.60;;;;;;5039280;28;20029;-88
2021/12/20 02:13:16;;;;;;;2.30;1.20;;;10.10;78.60;;;;;;5038027;28;20060;-88
2021/12/20 02:15:43;;;;;;;2.95;1.35;;;10.10;78.70;;;;;;5055856;28;20064;-87
2021/12/20 02:18:11;;;;;;;2.25;1.27;;;10.10;78.70;;;;;;5055807;28;20017;-89
2021/12/20 02:20:37;;;;;;;2.33;1.30;;;10.10;78.60;;;;;;5038692;28;20079;-88
2021/12/20 02:23:05;;;;;;;2.67;1.25;;;10.10;78.60;;;;;;5039133;28;20033;-89
2021/12/20 02:25:31;;;;;;;2.50;1.42;;;10.00;78.60;;;;;;5057578;28;20025;-87
2021/12/20 02:28:05;;;;;;;3.33;1.27;;;10.10;78.70;;;;;;5056316;28;20024;-88
2021/12/20 02:38:31;;;;;;;2.42;1.20;;;10.00;78.60;;;;;;5055749;28;20067;-87
2021/12/20 02:41:08;;;;;;;3.22;1.40;;;10.00;78.60;;;;;;5039263;28;20025;-87
2021/12/20 02:43:38;;;;;;;2.55;1.40;;;10.00;78.70;;;;;;5039526;28;20029;-87
2021/12/20 02:46:10;;;;;;;3.22;1.38;;;10.00;78.60;;;;;;5022791;28;20051;-86
2021/12/20 02:48:38;;;;;;;3.70;1.55;;;10.00;78.70;;;;;;5039359;28;20024;-88
2021/12/20 02:51:04;;;;;;;2.90;1.58;;;10.00;78.60;;;;;;5035221;28;20068;-88
2021/12/20 02:53:32;;;;;;;3.50;1.35;;;10.00;78.60;;;;;;5041044;28;20037;-87
2021/12/20 02:55:58;;;;;;;2.15;1.10;;;10.00;78.60;;;;;;5038828;28;20029;-88
2021/12/20 02:58:29;;;;;;;2.33;1.27;;;10.00;78.60;;;;;;5038950;28;20127;-87
2021/12/20 03:00:54;;;;;;;1.85;1.20;;;10.00;78.60;;;;;;5038357;28;20037;-87
2021/12/20 03:03:20;;;;;;;2.42;1.10;;;10.00;78.60;;;;;;5038291;28;20086;-87
2021/12/20 03:05:46;;;;;;;2.05;1.10;;;10.00;78.70;;;;;;5054569;28;20496;-87
2021/12/20 03:08:13;;;;;;;2.13;1.15;;;10.00;78.60;;;;;;5037614;28;20029;-87
2021/12/20 03:10:42;;;;;;;5.65;1.60;;;10.00;78.60;;;;;;5055468;28;20031;-88
2021/12/20 03:13:09;;;;;;;1.55;1.20;;;10.00;78.70;;;;;;5055286;28;20037;-87
2021/12/20 03:15:35;;;;;;;3.08;1.48;;;9.90;78.60;;;;;;5038241;28;20465;-88
2021/12/20 03:18:03;;;;;;;1.75;1.23;;;9.90;78.60;;;;;;5038638;28;20124;-88
2021/12/20 03:20:29;;;;;;;3.28;1.48;;;9.90;78.60;;;;;;5038450;28;20021;-87
2021/12/20 03:22:55;;;;;;;2.83;1.20;;;9.90;78.60;;;;;;5038539;28;20428;-88
2021/12/20 03:25:21;;;;;;;2.67;1.38;;;9.90;78.60;;;;;;5038046;28;20075;-88
2021/12/20 03:27:47;;;;;;;2.65;1.10;;;9.90;78.60;;;;;;5037676;28;20052;-87
2021/12/20 03:30:16;;;;;;;1.65;1.10;;;9.90;78.60;;;;;;5054321;28;20371;-87
2021/12/20 03:32:47;;;;;;;3.33;1.60;;;9.90;78.60;;;;;;5054135;28;20083;-87
2021/12/20 03:35:13;;;;;;;1.83;1.20;;;9.90;78.60;;;;;;5038178;28;20186;-87
2021/12/20 03:37:39;;;;;;;3.17;1.40;;;9.90;78.60;;;;;;5038132;28;20057;-87
2021/12/20 03:40:06;;;;;;;3.10;1.42;;;9.90;78.60;;;;;;5021061;28;20044;-88
2021/12/20 03:42:32;;;;;;;2.58;1.15;;;9.90;78.60;;;;;;5037531;28;20500;-87
2021/12/20 03:44:58;;;;;;;2.40;1.42;;;9.90;78.60;;;;;;5053920;28;20143;-87
2021/12/20 03:47:24;;;;;;;1.98;1.40;;;9.90;78.60;;;;;;5021999;28;20364;-87
2021/12/20 03:49:50;;;;;;;3.45;1.50;;;9.90;78.60;;;;;;5055257;28;20021;-87
2021/12/20 03:52:16;;;;;;;3.90;1.50;;;9.90;78.60;;;;;;5037539;28;20017;-87
2021/12/20 03:54:42;;;;;;;2.63;1.25;;;9.90;78.60;;;;;;5053721;28;20076;-87
2021/12/20 03:57:08;;;;;;;1.65;1.23;;;9.90;78.60;;;;;;5054077;28;20029;-87
2021/12/20 03:59:34;;;;;;;3.03;1.25;;;9.80;78.50;;;;;;5053845;28;20091;-87
2021/12/20 04:02:05;;;;;;;2.47;1.20;;;9.80;78.60;;;;;;5021933;28;20096;-87
2021/12/20 04:04:31;;;;;;;1.90;1.13;;;9.80;78.60;;;;;;5054407;28;20553;-87
2021/12/20 04:06:56;;;;;;;3.50;1.40;;;9.90;78.60;;;;;;5037204;28;20055;-87
2021/12/20 04:09:22;;;;;;;3.28;1.48;;;9.80;78.50;;;;;;5053483;28;20067;-87
2021/12/20 04:11:48;;;;;;;3.22;1.48;;;9.80;78.50;;;;;;5036736;28;20021;-87
2021/12/20 04:14:14;;;;;;;2.08;1.08;;;9.80;78.50;;;;;;5036661;28;20129;-87
2021/12/20 04:16:40;;;;;;;2.65;1.50;;;9.80;78.50;;;;;;5021414;28;20021;-87
2021/12/20 04:19:06;;;;;;;4.03;1.40;;;9.80;78.50;;;;;;5022298;28;20092;-88
2021/12/20 04:21:32;;;;;;;3.55;1.33;;;9.80;78.50;;;;;;5037886;28;20017;-87
2021/12/20 04:24:02;;;;;;;2.42;1.50;;;9.80;78.50;;;;;;5038860;28;20033;-87
2021/12/20 04:26:34;;;;;;;3.28;1.30;;;9.80;78.60;;;;;;5023535;28;20033;-87
2021/12/20 04:29:00;;;;;;;3.03;1.20;;;9.80;78.50;;;;;;5020623;28;20051;-87
2021/12/20 04:31:28;;;;;;;2.92;1.38;;;9.80;78.50;;;;;;5053796;28;20031;-87
2021/12/20 04:33:55;;;;;;;3.30;1.48;;;9.70;78.50;;;;;;5037540;28;20140;-88
2021/12/20 04:36:21;;;;;;;3.58;1.40;;;9.70;78.50;;;;;;5056772;28;20063;-87
2021/12/20 04:38:50;;;;;;;4.38;1.73;;;9.70;78.50;;;;;;5024979;28;20048;-87
2021/12/20 04:41:16;;;;;;;3.63;1.30;;;9.80;78.60;;;;;;5041691;28;20044;-87
2021/12/20 04:43:42;;;;;;;2.58;1.27;;;9.80;78.50;;;;;;5041773;28;20036;-87
2021/12/20 04:46:08;;;;;;;3.20;1.17;;;9.70;78.50;;;;;;5041636;28;20385;-87
2021/12/20 04:48:33;;;;;;;4.13;1.58;;;9.70;78.50;;;;;;5058572;28;20057;-87
2021/12/20 04:50:59;;;;;;;3.58;1.60;;;9.70;78.50;;;;;;5057652;28;20462;-87
2021/12/20 04:53:25;;;;;;;2.58;1.20;;;9.70;78.50;;;;;;5041398;28;20086;-88
2021/12/20 04:55:51;;;;;;;2.67;1.30;;;9.70;78.50;;;;;;5041824;28;20025;-87
2021/12/20 04:58:17;;;;;;;3.25;1.30;;;9.70;78.50;;;;;;5040725;28;20037;-88
2021/12/20 05:00:44;;;;;;;2.20;1.40;;;9.70;78.50;;;;;;5041364;28;20029;-88
2021/12/20 05:03:10;;;;;;;3.47;1.48;;;9.70;78.50;;;;;;5040985;28;20021;-87
2021/12/20 05:05:36;;;;;;;1.80;1.05;;;9.70;78.50;;;;;;5025087;28;20025;-87
2021/12/20 05:08:04;;;;;;;2.65;1.33;;;9.70;78.50;;;;;;5043056;28;20060;-87
2021/12/20 05:10:37;;;;;;;2.38;1.17;;;9.70;79.20;;;;;;5047367;28;20024;-86
2021/12/20 05:13:06;;;;;;;2.85;1.40;;;9.70;78.50;;;;;;5041777;28;20033;-87
2021/12/20 05:15:32;;;;;;;5.22;1.50;;;9.70;78.50;;;;;;5057318;28;20021;-87
2021/12/20 05:17:59;;;;;;;1.65;1.20;;;9.60;78.50;;;;;;5040437;28;20060;-88
2021/12/20 05:20:27;;;;;;;2.35;1.17;;;9.60;78.50;;;;;;5058409;28;20458;-89
2021/12/20 05:22:55;;;;;;;3.08;1.33;;;9.60;78.50;;;;;;5059917;28;20076;-87
2021/12/20 05:25:24;;;;;;;2.90;1.30;;;9.70;78.60;;;;;;5041055;28;20024;-87
2021/12/20 05:27:50;;;;;;;2.70;1.55;;;9.60;78.50;;;;;;5040354;28;20442;-87
2021/12/20 05:30:17;;;;;;;2.92;1.20;;;9.60;78.50;;;;;;5039939;28;20045;-87
2021/12/20 05:32:44;;;;;;;1.10;1.00;;;9.60;78.50;;;;;;5039486;28;20037;-87
2021/12/20 05:35:12;;;;;;;2.45;1.20;;;9.60;78.50;;;;;;5039453;28;20033;-87
2021/12/20 05:37:40;;;;;;;3.90;1.50;;;9.60;78.50;;;;;;5039941;28;20393;-87
2021/12/20 05:40:09;;;;;;;2.13;1.20;;;9.60;78.50;;;;;;5023422;28;20028;-87
2021/12/20 05:42:35;;;;;;;2.15;1.30;;;9.60;78.50;;;;;;5039983;28;20475;-87
2021/12/20 05:45:31;;;;;;;2.58;1.30;;;9.60;78.50;;;;;;5058132;28;20100;-93
2021/12/20 05:48:51;;;;;;;;;;;;;;;;;;;;;
2021/12/20 06:00:16;;;;;;;;;;;;;;;;;;;;;
2021/12/20 06:04:11;;;;;;;1.25;1.02;;;9.50;78.60;;;;;;4977774;28;20471;-90
2021/12/20 06:18:23;;;;;;;2.15;1.10;;;9.40;78.90;;;;;;4842459;28;20068;-86
2021/12/20 06:20:51;;;;;;;2.05;1.15;;;9.40;78.70;;;;;;4944058;28;20031;-84
2021/12/20 06:23:32;;;;;;;3.97;1.60;;;9.30;78.70;;;;;;4944024;28;20065;-88
2021/12/20 06:26:28;;;;;;;;;;;;;;;;;;;;;
2021/12/20 06:29:03;;;;;;;2.38;1.30;;;9.40;78.90;;;;;;5057178;28;20064;-89
2021/12/20 06:31:38;;;;;;;1.75;1.10;;;9.40;78.70;;;;;;5025876;28;20037;-86
2021/12/20 06:34:07;;;;;;;2.28;1.25;;;9.40;78.70;;;;;;5038709;28;20509;-89
2021/12/20 06:36:36;;;;;;;3.40;1.30;;;9.40;78.70;;;;;;5040959;28;20067;-90
2021/12/20 06:39:05;;;;;;;2.92;1.20;;;9.40;78.70;;;;;;5056589;28;20083;-90
2021/12/20 06:41:34;;;;;;;2.05;1.25;;;9.40;78.70;;;;;;5040778;28;20068;-89
2021/12/20 06:44:02;;;;;;;1.33;1.10;;;9.40;78.60;;;;;;5059068;28;20115;-87
2021/12/20 06:46:28;;;;;;;3.53;1.50;;;9.40;78.60;;;;;;5055751;28;20025;-89
2021/12/20 06:48:56;;;;;;;2.15;1.17;;;9.40;78.70;;;;;;5039419;28;20047;-90
2021/12/20 06:51:25;;;;;;;1.15;1.00;;;9.40;78.60;;;;;;5039039;28;20032;-90
2021/12/20 06:53:54;;;;;;;3.30;1.20;;;9.40;78.60;;;;;;5021659;28;20044;-90
2021/12/20 06:56:33;;;;;;;2.65;1.25;;;9.40;78.60;;;;;;5039320;28;20108;-89
2021/12/20 06:59:02;;;;;;;3.03;1.23;;;9.40;78.60;;;;;;5038910;28;20029;-92
2021/12/20 07:01:51;;;;;;;1.85;1.10;;;9.40;78.60;;;;;;5054281;28;20086;-92
2021/12/20 07:05:27;;;;;;;;;;;;;;;;;;;;;
2021/12/20 08:04:59;;;;;;;;;;;;;;;;;;;;;
2021/12/20 08:07:50;;;;;;;1.73;1.02;;;9.10;79.00;;;;;;4895404;28;20058;-84
2021/12/20 08:10:21;;;;;;;1.60;1.40;;;9.10;79.00;;;;;;4958140;28;20058;-86
2021/12/20 08:12:53;;;;;;;1.88;1.20;;;9.10;79.00;;;;;;4976910;28;20065;-87
2021/12/20 08:15:21;;;;;;;3.50;1.58;;;9.10;79.00;;;;;;4990772;28;20052;-86
2021/12/20 08:17:48;;;;;;;3.25;1.50;;;9.10;79.00;;;;;;5004020;28;20021;-86
2021/12/20 08:20:14;;;;;;;2.03;1.33;;;9.20;79.00;;;;;;5004387;28;20060;-86
2021/12/20 08:22:42;;;;;;;4.00;1.60;;;9.20;79.00;;;;;;5020206;28;20051;-85
2021/12/20 08:25:16;;;;;;;2.13;1.40;;;9.10;78.90;;;;;;5036898;28;20033;-86
2021/12/20 08:27:52;;;;;;;1.73;1.30;;;9.20;78.90;;;;;;5021433;28;20021;-86
2021/12/20 08:30:21;;;;;;;1.30;1.10;;;9.20;78.90;;;;;;5036298;28;20067;-86
2021/12/20 08:32:56;;;;;;;1.75;1.20;;;9.20;78.80;;;;;;5020638;28;20090;-87
2021/12/20 08:35:24;;;;;;;2.75;1.48;;;9.20;78.80;;;;;;5021295;28;20037;-87
2021/12/20 08:38:05;;;;;;;3.08;1.33;;;9.20;78.80;;;;;;5055321;28;20025;-86
2021/12/20 08:40:38;;;;;;;1.73;1.15;;;9.20;78.80;;;;;;5054076;28;20080;-86
2021/12/20 08:43:12;;;;;;;2.25;1.30;;;9.20;78.80;;;;;;5020294;28;20090;-86
2021/12/20 08:45:48;;;;;;;2.33;1.30;;;9.20;78.80;;;;;;5053412;28;20044;-87
2021/12/20 08:48:16;;;;;;;1.48;1.17;;;9.20;78.80;;;;;;5036691;28;20417;-86
2021/12/20 08:50:59;;;;;;;2.25;1.38;;;9.20;78.80;;;;;;5053906;28;20120;-86
2021/12/20 08:53:24;;;;;;;;;;;9.20;78.80;;;;;;5022385;28;20048;-87
2021/12/20 08:55:56;;;;;;;1.30;1.10;;;9.20;78.70;;;;;;5053198;28;19905;-85
2021/12/20 08:58:33;;;;;;;2.78;1.33;;;9.20;78.70;;;;;;5037418;28;20037;-86
2021/12/20 09:01:07;;;;;;;3.17;1.50;;;9.10;78.70;;;;;;5053255;28;20063;-85
2021/12/20 09:03:35;;;;;;;2.33;1.40;;;9.20;78.90;;;;;;5036621;28;20474;-86
2021/12/20 09:06:08;;;;;;;2.28;1.33;;;9.20;78.80;;;;;;5053160;28;20021;-86
2021/12/20 09:08:49;;;;;;;;;;;;;;;;;;;;;
2021/12/20 09:11:17;;;;;;;1.63;1.20;;;9.20;78.90;;;;;;5053662;28;20043;-85
2021/12/20 09:13:43;;;;;;;1.67;1.20;;;9.20;78.80;;;;;;5035950;28;20033;-86
2021/12/20 09:16:12;;;;;;;3.00;1.30;;;9.20;78.80;;;;;;5052463;28;20057;-86
2021/12/20 09:18:40;;;;;;;2.25;1.40;;;9.20;78.80;;;;;;5052777;28;20111;-82
2021/12/20 09:21:16;;;;;;;2.53;1.40;;;9.20;78.80;;;;;;5042398;28;20068;-87
2021/12/20 09:23:43;;;;;;;2.60;1.30;;;9.20;78.90;;;;;;5073077;28;20057;-87
2021/12/20 09:26:15;;;;;;;2.17;1.52;;;9.20;78.80;;;;;;5055211;28;20017;-88
2021/12/20 09:28:41;;;;;;;2.03;1.45;;;9.20;78.80;;;;;;5068424;28;20033;-84
2021/12/20 09:31:08;;;;;;;1.92;1.35;;;9.20;78.70;;;;;;5040057;28;20048;-85
2021/12/20 09:33:37;;;;;;;1.45;1.25;;;9.20;78.80;;;;;;5024661;28;20047;-86
2021/12/20 09:36:03;;;;;;;4.30;1.50;;;9.20;78.70;;;;;;5038999;28;20108;-84
2021/12/20 09:38:31;;;;;;;2.95;1.52;;;9.20;78.80;;;;;;5056030;28;20029;-85
2021/12/20 09:43:42;;;;;;;2.58;1.30;;;9.30;78.80;;;;;;5041341;28;20045;-86
2021/12/20 09:46:11;;;;;;;2.13;1.33;;;9.30;78.90;;;;;;5039577;28;20020;-85
2021/12/20 09:48:37;;;;;;;1.80;1.10;;;9.20;78.80;;;;;;5039144;28;20021;-85
2021/12/20 09:51:08;;;;;;;2.83;1.35;;;9.30;78.80;;;;;;5039343;28;20466;-85
2021/12/20 09:53:36;;;;;;;1.88;1.30;;;9.20;78.80;;;;;;5024078;28;20037;-85
2021/12/20 09:56:07;;;;;;;3.50;1.30;;;9.20;78.70;;;;;;5039412;28;20017;-86
2021/12/20 09:58:38;;;;;;;2.20;1.45;;;9.20;78.80;;;;;;5039689;28;20037;-85
2021/12/20 10:01:20;;;;;;;1.48;1.20;;;9.30;78.80;;;;;;5039316;28;20025;-85
2021/12/20 10:03:49;;;;;;;2.25;1.38;;;9.30;78.80;;;;;;5039377;28;20040;-85
2021/12/20 10:06:16;;;;;;;3.33;1.55;;;9.30;78.80;;;;;;5038440;28;20036;-85
2021/12/20 10:08:52;;;;;;;3.08;1.38;;;9.30;78.80;;;;;;5055504;28;20612;-85
2021/12/20 10:11:27;;;;;;;3.20;1.50;;;9.30;78.80;;;;;;5039679;28;20029;-84
2021/12/20 10:14:05;;;;;;;1.48;1.15;;;9.30;78.80;;;;;;5038906;28;20037;-84
2021/12/20 10:16:32;;;;;;;4.07;1.70;;;9.30;78.90;;;;;;5038518;28;20025;-84
2021/12/20 10:19:00;;;;;;;2.25;1.30;;;9.30;78.80;;;;;;5022391;28;20024;-85
2021/12/20 10:21:58;;;;;;;1.60;1.20;;;9.30;78.80;;;;;;5039866;28;20033;-85
2021/12/20 10:24:39;;;;;;;1.40;1.30;;;9.30;79.00;;;;;;5036414;28;20516;-85
2021/12/20 10:27:33;;;;;;;1.35;1.10;;;9.30;78.80;;;;;;5039158;28;20079;-84
2021/12/20 10:30:01;;;;;;;1.40;1.10;;;9.30;78.90;;;;;;5038473;28;20099;-85
2021/12/20 10:32:41;;;;;;;3.00;1.33;;;9.30;78.80;;;;;;5055631;28;20025;-85
2021/12/20 10:35:32;;;;;;;3.40;1.50;;;9.30;78.90;;;;;;5055154;28;20033;-85
2021/12/20 10:38:02;;;;;;;1.92;1.10;;;9.20;78.90;;;;;;5044501;28;20033;-85
2021/12/20 10:40:32;;;;;;;1.85;1.30;;;9.30;78.80;;;;;;5037992;28;20116;-85
2021/12/20 10:43:00;;;;;;;3.83;1.40;;;9.30;78.80;;;;;;5038526;28;20039;-86
2021/12/20 10:45:41;;;;;;;1.92;1.10;;;9.30;78.80;;;;;;5038103;28;20108;-84
2021/12/20 10:48:13;;;;;;;1.42;1.20;;;9.20;78.70;;;;;;5039863;28;20545;-84
2021/12/20 10:50:43;;;;;;;2.55;1.30;;;9.30;78.80;;;;;;5038188;28;20477;-86
2021/12/20 10:53:15;;;;;;;2.53;1.40;;;9.30;78.80;;;;;;5038729;28;20072;-85
2021/12/20 10:56:07;;;;;;;2.35;1.30;;;9.30;78.80;;;;;;5038242;28;20025;-86
2021/12/20 10:58:54;;;;;;;;;;;;;;;;;;;;;
2021/12/20 11:04:16;;;;;;;2.92;1.20;;;9.20;78.70;;;;;;5055639;28;20029;-85
2021/12/20 11:09:44;;;;;;;2.08;1.25;;;9.20;78.70;;;;;;5054524;28;20474;-85
2021/12/20 11:12:21;;;;;;;2.42;1.50;;;9.30;78.80;;;;;;5038498;28;20036;-85
2021/12/20 11:14:50;;;;;;;3.35;1.38;;;9.30;78.80;;;;;;5037991;28;20037;-83
2021/12/20 11:17:28;;;;;;;2.67;1.35;;;9.30;78.80;;;;;;5037891;28;20021;-85
2021/12/20 11:19:58;;;;;;;;;;;9.30;78.90;;;;;;5055264;28;20024;-85
2021/12/20 11:22:36;;;;;;;2.58;1.30;;;9.30;78.80;;;;;;5038551;28;19909;-84
2021/12/20 11:25:06;;;;;;;1.85;1.30;;;9.30;78.70;;;;;;5037270;28;20051;-85
2021/12/20 11:27:42;;;;;;;2.53;1.50;;;9.20;78.80;;;;;;5053860;28;20033;-84
2021/12/20 11:30:35;;;;;;;2.13;1.20;;;9.20;78.90;;;;;;5037089;28;20045;-84
2021/12/20 11:33:07;;;;;;;2.45;1.60;;;9.20;79.00;;;;;;5050062;28;20073;-85
2021/12/20 11:35:33;;;;;;;3.45;1.80;;;9.30;78.90;;;;;;5037245;28;20067;-85
2021/12/20 11:38:01;;;;;;;2.53;1.30;;;9.20;78.80;;;;;;5036904;28;20021;-85
2021/12/20 11:40:27;;;;;;;3.35;1.25;;;9.20;78.80;;;;;;5021308;28;20473;-85
2021/12/20 11:42:56;;;;;;;3.72;1.40;;;9.30;78.90;;;;;;5020619;28;20083;-84
2021/12/20 11:45:33;;;;;;;2.92;1.50;;;9.30;78.90;;;;;;5037802;28;20091;-84
2021/12/20 11:48:13;;;;;;;2.90;1.65;;;9.30;78.90;;;;;;5037713;28;20389;-85
2021/12/20 11:50:54;;;;;;;3.22;1.45;;;9.30;78.90;;;;;;5053985;28;20029;-84
2021/12/20 11:53:20;;;;;;;5.05;1.67;;;9.30;78.90;;;;;;5036034;28;20033;-83
2021/12/20 11:56:20;;;;;;;;;;;;;;;;;;;;;
2021/12/20 12:39:34;;;;;;;3.17;1.60;;;9.30;79.20;;;;;;4762410;29;20425;-90
2021/12/20 12:43:27;;;;;;;;;;;;;;;;;;;;;
2021/12/20 13:18:26;;;;;;;;;;;;;;;;;;;;;
2021/12/20 13:33:45;;;;;;;;;;;;;;;;;;;;;
2021/12/20 14:00:52;;;;;;;2.85;1.70;;;9.50;79.00;;;;;;4919594;29;20561;-91
2021/12/20 14:07:59;;;;;;;;;;;;;;;;;;;;;
2021/12/20 14:23:25;;;;;;;;;;;;;;;;;;;;;
2021/12/20 14:27:02;;;;;;;3.45;1.50;;;9.70;78.80;;;;;;5002529;28;20390;-87
2021/12/20 14:30:09;;;;;;;;;;;;;;;;;;;;;
2021/12/20 14:32:48;;;;;;;3.03;1.60;;;9.70;78.80;;;;;;5034179;28;20055;-84
2021/12/20 14:35:58;;;;;;;4.82;2.00;;;9.70;79.20;;;;;;5021270;28;20068;-87
2021/12/20 14:38:52;;;;;;;;;;;;;;;;;;;;;
2021/12/20 14:42:06;;;;;;;3.13;1.75;;;9.70;78.50;;;;;;5056039;28;20075;-87
2021/12/20 14:45:27;;;;;;;;;;;;;;;;;;;;;
2021/12/20 14:48:35;;;;;;;2.38;1.50;;;9.70;78.50;;;;;;5055308;28;20025;-87
2021/12/20 15:09:48;;;;;;;2.08;1.50;;;9.60;78.40;;;;;;4977051;28;20057;-90
2021/12/20 15:12:54;;;;;;;2.17;1.60;;;9.70;78.30;;;;;;4960715;28;20547;-91
2021/12/20 15:15:34;;;;;;;4.32;1.60;;;9.60;78.30;;;;;;5026619;28;20049;-90
2021/12/20 15:17:59;;;;;;;4.15;1.70;;;9.60;78.20;;;;;;5021136;28;20021;-86
2021/12/20 15:20:25;;;;;;;3.15;1.83;;;9.60;78.20;;;;;;5020958;28;20025;-84
2021/12/20 15:22:52;;;;;;;3.17;1.65;;;9.60;78.20;;;;;;5021380;28;20033;-84
2021/12/20 15:25:21;;;;;;;3.28;1.83;;;9.60;78.20;;;;;;5021137;28;20031;-85
2021/12/20 15:27:54;;;;;;;3.78;1.73;;;9.60;78.20;;;;;;5020831;28;20037;-85
2021/12/20 15:30:21;;;;;;;4.03;2.25;;;9.60;78.10;;;;;;5038382;28;20021;-83
2021/12/20 15:32:52;;;;;;;4.07;1.70;;;9.60;78.10;;;;;;5054751;28;20075;-84
2021/12/20 15:35:18;;;;;;;2.95;1.73;;;9.60;78.00;;;;;;5020816;28;20541;-84
2021/12/20 15:37:45;;;;;;;3.45;1.80;;;9.60;78.30;;;;;;5020861;28;20382;-84
2021/12/20 15:40:16;;;;;;;4.18;1.70;;;9.60;78.00;;;;;;5021409;28;20051;-85
2021/12/20 15:43:33;;;;;;;3.40;1.55;;;9.60;78.00;;;;;;5037220;28;20033;-86
2021/12/20 15:46:00;;;;;;;3.55;2.10;;;9.60;78.00;;;;;;5043470;28;20363;-86
2021/12/20 15:52:50;;;;;;;3.83;2.05;;;9.50;78.00;;;;;;5045648;28;20033;-88
2021/12/20 15:55:32;;;;;;;2.80;1.70;;;9.50;77.80;;;;;;5028949;28;20075;-88
2021/12/20 15:58:29;;;;;;;3.85;1.77;;;9.50;77.90;;;;;;5027111;28;20037;-85
2021/12/20 16:01:06;;;;;;;3.20;1.80;;;9.40;77.90;;;;;;5037318;28;20033;-88
2021/12/20 16:03:57;;;;;;;5.90;2.17;;;9.40;77.90;;;;;;5037869;28;20036;-88
2021/12/20 16:06:33;;;;;;;5.78;2.22;;;9.40;77.90;;;;;;5019698;28;20037;-88
2021/12/20 16:09:23;;;;;;;3.53;2.00;;;9.40;77.80;;;;;;5038034;28;20029;-87
2021/12/20 16:11:55;;;;;;;3.35;2.00;;;9.30;77.80;;;;;;5023549;28;20033;-87
2021/12/20 16:14:33;;;;;;;3.58;1.90;;;9.30;77.80;;;;;;5053401;28;20539;-87
2021/12/20 16:17:18;;;;;;;2.75;1.88;;;9.30;77.80;;;;;;5053442;28;20029;-85
2021/12/20 16:20:59;;;;;;;;;;;;;;;;;;;;;
2021/12/20 16:23:55;;;;;;;3.63;1.98;;;9.20;77.80;;;;;;5053722;28;20040;-87
2021/12/20 16:30:24;;;;;;;3.05;2.03;;;9.10;78.00;;;;;;5018462;28;20048;-87
2021/12/20 16:33:33;;;;;;;3.70;2.25;;;9.10;77.80;;;;;;4987901;28;20045;-87
2021/12/20 16:36:33;;;;;;;;;;;;;;;;;;;;;
2021/12/20 16:39:49;;;;;;;;;;;;;;;;;;;;;
2021/12/20 16:43:08;;;;;;;2.88;1.73;;;9.00;77.80;;;;;;5055126;28;20033;-88
2021/12/20 16:46:23;;;;;;;4.07;2.25;;;9.00;77.80;;;;;;5053739;28;20037;-89
2021/12/20 16:53:19;;;;;;;3.65;2.15;;;8.90;77.60;;;;;;5049635;28;20041;-89
2021/12/20 16:56:51;;;;;;;3.63;1.85;;;8.90;77.80;;;;;;5057460;28;20044;-88
2021/12/20 17:07:07;;;;;;;2.15;1.60;;;8.70;77.80;;;;;;4921753;29;20115;-89
2021/12/20 17:10:06;;;;;;;;;;;;;;;;;;;;;
2021/12/20 17:13:12;;;;;;;;;;;;;;;;;;;;;
2021/12/20 17:15:42;;;;;;;3.00;1.73;;;8.60;77.80;;;;;;4976289;28;20085;-87
2021/12/20 17:18:16;;;;;;;3.80;1.88;;;8.60;77.60;;;;;;5053408;28;20033;-89
2021/12/20 17:20:55;;;;;;;3.30;2.10;;;8.60;77.70;;;;;;5038351;28;20048;-89
2021/12/20 17:27:45;;;;;;;;;;;;;;;;;;;;;
2021/12/20 17:30:34;;;;;;;4.80;2.40;;;8.50;77.60;;;;;;5050579;28;20036;-89
2021/12/20 17:33:28;;;;;;;;;;;;;;;;;;;;;
2021/12/20 17:36:46;;;;;;;3.73;1.93;;;8.40;77.60;;;;;;5054183;28;20110;-87
2021/12/20 17:39:27;;;;;;;3.40;2.28;;;8.40;77.50;;;;;;5052747;28;20032;-87
2021/12/20 17:42:51;;;;;;;;;;;;;;;;;;;;;
2021/12/20 17:46:14;;;;;;;;;;;;;;;;;;;;;
2021/12/20 17:49:08;;;;;;;4.10;2.15;;;8.30;77.60;;;;;;5061010;28;20464;-90
2021/12/20 17:56:08;;;;;;;;;;;;;;;;;;;;;
2021/12/20 17:58:37;;;;;;;3.25;2.05;;;8.20;77.60;;;;;;5057283;28;20029;-90
2021/12/20 18:04:33;;;;;;;3.35;2.13;;;8.10;77.40;;;;;;5038024;28;20047;-89
2021/12/20 18:07:28;;;;;;;3.60;2.20;;;8.10;77.40;;;;;;5047116;28;20044;-90
2021/12/20 18:10:38;;;;;;;;;;;;;;;;;;;;;
2021/12/20 18:13:48;;;;;;;;;;;;;;;;;;;;;
2021/12/20 18:16:46;;;;;;;3.58;2.47;;;8.00;77.40;;;;;;5056351;28;20041;-89
2021/12/20 18:19:47;;;;;;;;;;;;;;;;;;;;;
2021/12/20 18:22:51;;;;;;;4.93;2.80;;;7.90;77.40;;;;;;5055389;28;20035;-86
2021/12/20 18:32:33;;;;;;;3.50;2.17;;;7.80;77.50;;;;;;5059608;28;20111;-84
2021/12/20 18:35:11;;;;;;;5.38;2.50;;;7.80;77.30;;;;;;5038626;28;20064;-90
2021/12/20 18:38:28;;;;;;;;;;;;;;;;;;;;;
2021/12/20 18:41:49;;;;;;;4.60;2.45;;;7.70;77.50;;;;;;5052597;28;20037;-89
2021/12/20 18:48:19;;;;;;;;;;;;;;;;;;;;;
2021/12/20 18:51:18;;;;;;;5.00;2.72;;;7.60;77.30;;;;;;5054678;28;20040;-91
2021/12/20 18:54:45;;;;;;;;;;;;;;;;;;;;;
2021/12/20 18:58:06;;;;;;;5.25;2.90;;;7.60;77.40;;;;;;5054684;28;20057;-91
2021/12/20 19:01:06;;;;;;;;;;;;;;;;;;;;;
2021/12/20 19:04:26;;;;;;;4.13;2.63;;;7.50;77.40;;;;;;5050245;28;20091;-91
2021/12/20 19:07:17;;;;;;;4.68;2.67;;;7.50;77.40;;;;;;5053430;28;20545;-90
2021/12/20 19:13:08;;;;;;;5.10;3.13;;;7.40;77.40;;;;;;5044805;28;20029;-89